sensor_id;sensor_type;location;lat;lon;timestamp;noise_LAeq;noise_LA_min;noise_LA_max;noise_LA01;noise_LA95
77134;Laerm;25175;50.140;18.990;2023-03-01T00:01:14;40.13;35.45;55.61;;
77134;Laerm;25175;50.140;18.990;2023-03-01T00:04:20;37.90;35.20;40.92;;
77134;Laerm;25175;50.140;18.990;2023-03-01T00:07:24;37.28;34.86;40.94;;
77134;Laerm;25175;50.140;18.990;2023-03-01T00:10:29;37.71;34.90;47.27;;
77134;Laerm;25175;50.140;18.990;2023-03-01T00:13:35;38.65;34.82;68.84;;
77134;Laerm;25175;50.140;18.990;2023-03-01T00:16:45;38.14;35.40;43.35;;
77134;Laerm;25175;50.140;18.990;2023-03-01T00:19:49;40.22;35.43;53.85;;
77134;Laerm;25175;50.140;18.990;2023-03-01T00:22:55;38.13;34.86;45.28;;
77134;Laerm;25175;50.140;18.990;2023-03-01T00:25:59;37.09;34.53;43.10;;
77134;Laerm;25175;50.140;18.990;2023-03-01T00:29:04;36.78;34.46;40.25;;
77134;Laerm;25175;50.140;18.990;2023-03-01T00:32:12;38.68;34.43;67.95;;
77134;Laerm;25175;50.140;18.990;2023-03-01T00:35:17;37.23;34.98;42.50;;
77134;Laerm;25175;50.140;18.990;2023-03-01T00:38:21;37.40;34.72;43.34;;
77134;Laerm;25175;50.140;18.990;2023-03-01T00:41:27;37.75;35.29;41.82;;
77134;Laerm;25175;50.140;18.990;2023-03-01T00:44:31;37.41;34.95;41.63;;
77134;Laerm;25175;50.140;18.990;2023-03-01T00:47:39;38.53;35.01;43.08;;
77134;Laerm;25175;50.140;18.990;2023-03-01T00:50:43;39.54;34.91;54.31;;
77134;Laerm;25175;50.140;18.990;2023-03-01T00:53:54;37.56;34.87;43.16;;
77134;Laerm;25175;50.140;18.990;2023-03-01T00:57:00;38.84;34.58;51.88;;
77134;Laerm;25175;50.140;18.990;2023-03-01T01:00:10;36.60;34.67;47.78;;
77134;Laerm;25175;50.140;18.990;2023-03-01T01:03:18;37.41;34.78;41.46;;
77134;Laerm;25175;50.140;18.990;2023-03-01T01:06:26;36.93;34.63;39.92;;
77134;Laerm;25175;50.140;18.990;2023-03-01T01:09:31;36.84;34.54;40.11;;
77134;Laerm;25175;50.140;18.990;2023-03-01T01:12:36;37.14;34.48;40.50;;
77134;Laerm;25175;50.140;18.990;2023-03-01T01:15:41;37.54;34.83;43.04;;
77134;Laerm;25175;50.140;18.990;2023-03-01T01:18:49;38.83;35.17;51.32;;
77134;Laerm;25175;50.140;18.990;2023-03-01T01:21:54;37.42;34.88;41.89;;
77134;Laerm;25175;50.140;18.990;2023-03-01T01:24:59;40.37;34.32;57.16;;
77134;Laerm;25175;50.140;18.990;2023-03-01T01:28:03;39.76;34.08;69.57;;
77134;Laerm;25175;50.140;18.990;2023-03-01T01:31:09;36.84;34.36;45.40;;
77134;Laerm;25175;50.140;18.990;2023-03-01T01:34:19;38.22;34.30;42.42;;
77134;Laerm;25175;50.140;18.990;2023-03-01T01:37:24;39.51;35.19;54.15;;
77134;Laerm;25175;50.140;18.990;2023-03-01T01:40:32;37.14;33.98;41.17;;
77134;Laerm;25175;50.140;18.990;2023-03-01T01:43:40;40.52;34.66;55.39;;
77134;Laerm;25175;50.140;18.990;2023-03-01T01:46:52;37.48;34.16;46.01;;
77134;Laerm;25175;50.140;18.990;2023-03-01T01:50:02;37.25;34.61;40.50;;
77134;Laerm;25175;50.140;18.990;2023-03-01T01:53:13;37.13;34.83;42.83;;
77134;Laerm;25175;50.140;18.990;2023-03-01T01:56:24;37.89;34.52;42.38;;
77134;Laerm;25175;50.140;18.990;2023-03-01T01:59:33;36.44;34.06;41.59;;
77134;Laerm;25175;50.140;18.990;2023-03-01T02:02:41;37.17;34.58;40.32;;
77134;Laerm;25175;50.140;18.990;2023-03-01T02:06:00;38.41;34.96;46.05;;
77134;Laerm;25175;50.140;18.990;2023-03-01T02:09:14;41.64;34.42;59.74;;
77134;Laerm;25175;50.140;18.990;2023-03-01T02:12:24;37.75;34.17;42.81;;
77134;Laerm;25175;50.140;18.990;2023-03-01T02:15:34;40.57;35.83;68.19;;
77134;Laerm;25175;50.140;18.990;2023-03-01T02:18:41;38.55;34.75;43.91;;
77134;Laerm;25175;50.140;18.990;2023-03-01T02:22:06;36.62;34.42;40.11;;
77134;Laerm;25175;50.140;18.990;2023-03-01T02:25:30;40.60;34.92;53.31;;
77134;Laerm;25175;50.140;18.990;2023-03-01T02:28:44;38.43;34.92;45.32;;
77134;Laerm;25175;50.140;18.990;2023-03-01T02:31:52;37.37;34.60;42.98;;
77134;Laerm;25175;50.140;18.990;2023-03-01T02:35:03;36.37;34.12;40.57;;
77134;Laerm;25175;50.140;18.990;2023-03-01T02:38:09;37.56;34.49;43.90;;
77134;Laerm;25175;50.140;18.990;2023-03-01T02:41:19;39.53;34.90;53.30;;
77134;Laerm;25175;50.140;18.990;2023-03-01T02:44:26;40.04;36.17;49.79;;
77134;Laerm;25175;50.140;18.990;2023-03-01T02:47:32;40.42;35.51;53.49;;
77134;Laerm;25175;50.140;18.990;2023-03-01T02:51:01;38.55;35.37;44.45;;
77134;Laerm;25175;50.140;18.990;2023-03-01T02:54:20;38.27;34.75;42.50;;
77134;Laerm;25175;50.140;18.990;2023-03-01T02:57:29;38.20;34.84;47.57;;
77134;Laerm;25175;50.140;18.990;2023-03-01T03:00:41;37.88;34.86;41.93;;
77134;Laerm;25175;50.140;18.990;2023-03-01T03:03:50;38.86;35.24;45.24;;
77134;Laerm;25175;50.140;18.990;2023-03-01T03:06:55;38.36;35.64;42.61;;
77134;Laerm;25175;50.140;18.990;2023-03-01T03:10:01;38.30;35.47;46.40;;
77134;Laerm;25175;50.140;18.990;2023-03-01T03:13:12;38.00;35.23;43.29;;
77134;Laerm;25175;50.140;18.990;2023-03-01T03:16:21;38.46;35.53;41.92;;
77134;Laerm;25175;50.140;18.990;2023-03-01T03:19:27;38.65;34.61;49.60;;
77134;Laerm;25175;50.140;18.990;2023-03-01T03:22:32;37.95;34.92;43.31;;
77134;Laerm;25175;50.140;18.990;2023-03-01T03:25:38;38.14;35.23;42.43;;
77134;Laerm;25175;50.140;18.990;2023-03-01T03:28:42;37.85;35.39;42.21;;
77134;Laerm;25175;50.140;18.990;2023-03-01T03:31:51;38.98;35.42;49.97;;
77134;Laerm;25175;50.140;18.990;2023-03-01T03:34:55;40.00;35.20;71.37;;
77134;Laerm;25175;50.140;18.990;2023-03-01T03:38:05;38.46;35.34;45.56;;
77134;Laerm;25175;50.140;18.990;2023-03-01T03:41:17;37.93;35.26;51.27;;
77134;Laerm;25175;50.140;18.990;2023-03-01T03:44:23;38.73;35.30;47.45;;
77134;Laerm;25175;50.140;18.990;2023-03-01T03:47:30;42.33;34.76;57.88;;
77134;Laerm;25175;50.140;18.990;2023-03-01T03:50:35;38.03;35.01;44.56;;
77134;Laerm;25175;50.140;18.990;2023-03-01T03:53:41;38.42;35.67;41.34;;
77134;Laerm;25175;50.140;18.990;2023-03-01T03:56:46;38.21;35.61;50.94;;
77134;Laerm;25175;50.140;18.990;2023-03-01T03:59:50;38.13;35.44;44.84;;
77134;Laerm;25175;50.140;18.990;2023-03-01T04:02:58;38.47;35.27;42.93;;
77134;Laerm;25175;50.140;18.990;2023-03-01T04:06:04;40.09;36.33;46.40;;
77134;Laerm;25175;50.140;18.990;2023-03-01T04:09:09;40.20;35.50;55.82;;
77134;Laerm;25175;50.140;18.990;2023-03-01T04:12:14;39.48;35.60;56.40;;
77134;Laerm;25175;50.140;18.990;2023-03-01T04:15:26;38.51;35.21;42.93;;
77134;Laerm;25175;50.140;18.990;2023-03-01T04:18:33;44.74;35.61;59.72;;
77134;Laerm;25175;50.140;18.990;2023-03-01T04:21:38;40.75;35.78;55.70;;
77134;Laerm;25175;50.140;18.990;2023-03-01T04:24:43;42.39;35.81;55.95;;
77134;Laerm;25175;50.140;18.990;2023-03-01T04:27:48;44.77;35.65;60.95;;
77134;Laerm;25175;50.140;18.990;2023-03-01T04:30:54;45.63;35.85;61.61;;
77134;Laerm;25175;50.140;18.990;2023-03-01T04:34:02;42.11;36.65;53.04;;
77134;Laerm;25175;50.140;18.990;2023-03-01T04:37:07;45.65;36.84;58.59;;
77134;Laerm;25175;50.140;18.990;2023-03-01T04:40:12;41.40;36.03;53.58;;
77134;Laerm;25175;50.140;18.990;2023-03-01T04:43:17;44.16;36.68;68.17;;
77134;Laerm;25175;50.140;18.990;2023-03-01T04:46:22;42.82;36.55;54.19;;
77134;Laerm;25175;50.140;18.990;2023-03-01T04:49:30;41.52;36.56;53.51;;
77134;Laerm;25175;50.140;18.990;2023-03-01T04:52:35;44.48;35.92;57.72;;
77134;Laerm;25175;50.140;18.990;2023-03-01T04:55:40;42.52;36.23;56.89;;
77134;Laerm;25175;50.140;18.990;2023-03-01T04:58:45;38.97;35.92;47.30;;
77134;Laerm;25175;50.140;18.990;2023-03-01T05:01:50;43.21;35.95;59.51;;
77134;Laerm;25175;50.140;18.990;2023-03-01T05:05:00;43.27;36.08;56.76;;
77134;Laerm;25175;50.140;18.990;2023-03-01T05:08:07;43.73;36.48;56.59;;
77134;Laerm;25175;50.140;18.990;2023-03-01T05:11:19;42.20;37.16;51.69;;
77134;Laerm;25175;50.140;18.990;2023-03-01T05:14:24;45.59;37.44;57.99;;
77134;Laerm;25175;50.140;18.990;2023-03-01T05:17:29;44.58;37.50;57.75;;
77134;Laerm;25175;50.140;18.990;2023-03-01T05:20:36;47.81;37.65;59.58;;
77134;Laerm;25175;50.140;18.990;2023-03-01T05:23:42;46.21;37.99;59.65;;
77134;Laerm;25175;50.140;18.990;2023-03-01T05:26:46;43.94;38.01;58.03;;
77134;Laerm;25175;50.140;18.990;2023-03-01T05:29:53;46.20;37.60;61.35;;
77134;Laerm;25175;50.140;18.990;2023-03-01T05:32:58;44.96;37.35;59.71;;
77134;Laerm;25175;50.140;18.990;2023-03-01T05:36:09;46.18;38.15;58.59;;
77134;Laerm;25175;50.140;18.990;2023-03-01T05:39:13;47.57;39.33;58.41;;
77134;Laerm;25175;50.140;18.990;2023-03-01T05:42:18;50.36;38.76;61.64;;
77134;Laerm;25175;50.140;18.990;2023-03-01T05:45:25;48.11;38.27;66.58;;
77134;Laerm;25175;50.140;18.990;2023-03-01T05:48:31;47.91;39.08;60.06;;
77134;Laerm;25175;50.140;18.990;2023-03-01T05:51:38;46.96;38.51;56.54;;
77134;Laerm;25175;50.140;18.990;2023-03-01T05:54:43;46.30;39.69;57.74;;
77134;Laerm;25175;50.140;18.990;2023-03-01T05:57:48;46.60;40.00;58.72;;
77134;Laerm;25175;50.140;18.990;2023-03-01T06:00:53;47.98;40.34;58.79;;
77134;Laerm;25175;50.140;18.990;2023-03-01T06:03:58;46.34;40.07;60.15;;
77134;Laerm;25175;50.140;18.990;2023-03-01T06:07:06;47.48;39.63;58.63;;
77134;Laerm;25175;50.140;18.990;2023-03-01T06:10:14;47.27;38.84;57.71;;
77134;Laerm;25175;50.140;18.990;2023-03-01T06:13:20;44.91;38.35;55.58;;
77134;Laerm;25175;50.140;18.990;2023-03-01T06:16:24;46.84;37.70;57.84;;
77134;Laerm;25175;50.140;18.990;2023-03-01T06:19:30;46.78;37.42;58.69;;
77134;Laerm;25175;50.140;18.990;2023-03-01T06:22:37;47.70;38.76;58.98;;
77134;Laerm;25175;50.140;18.990;2023-03-01T06:25:42;46.00;38.63;57.53;;
77134;Laerm;25175;50.140;18.990;2023-03-01T06:28:46;47.55;38.87;63.41;;
77134;Laerm;25175;50.140;18.990;2023-03-01T06:31:52;51.02;38.12;68.82;;
77134;Laerm;25175;50.140;18.990;2023-03-01T06:34:56;47.26;38.10;61.97;;
77134;Laerm;25175;50.140;18.990;2023-03-01T06:38:05;48.47;37.85;56.54;;
77134;Laerm;25175;50.140;18.990;2023-03-01T06:41:09;48.00;38.41;58.13;;
77134;Laerm;25175;50.140;18.990;2023-03-01T06:44:14;49.54;38.89;61.53;;
77134;Laerm;25175;50.140;18.990;2023-03-01T06:47:19;49.52;38.47;59.81;;
77134;Laerm;25175;50.140;18.990;2023-03-01T06:50:24;52.72;38.46;70.25;;
77134;Laerm;25175;50.140;18.990;2023-03-01T06:53:31;47.26;38.13;59.64;;
77134;Laerm;25175;50.140;18.990;2023-03-01T06:56:36;49.26;37.95;66.05;;
77134;Laerm;25175;50.140;18.990;2023-03-01T06:59:40;48.75;38.59;64.48;;
77134;Laerm;25175;50.140;18.990;2023-03-01T07:02:46;51.32;38.62;68.57;;
77134;Laerm;25175;50.140;18.990;2023-03-01T07:05:51;47.28;38.28;58.31;;
77134;Laerm;25175;50.140;18.990;2023-03-01T07:08:58;47.60;37.51;60.07;;
77134;Laerm;25175;50.140;18.990;2023-03-01T07:12:04;45.40;36.91;66.31;;
77134;Laerm;25175;50.140;18.990;2023-03-01T07:15:10;47.67;37.90;58.80;;
77134;Laerm;25175;50.140;18.990;2023-03-01T07:18:17;47.33;37.44;57.81;;
77134;Laerm;25175;50.140;18.990;2023-03-01T07:21:22;46.84;37.23;56.64;;
77134;Laerm;25175;50.140;18.990;2023-03-01T07:24:29;45.55;36.94;57.87;;
77134;Laerm;25175;50.140;18.990;2023-03-01T07:27:35;47.02;37.82;63.60;;
77134;Laerm;25175;50.140;18.990;2023-03-01T07:30:39;48.44;37.47;58.99;;
77134;Laerm;25175;50.140;18.990;2023-03-01T07:33:44;51.72;37.57;69.28;;
77134;Laerm;25175;50.140;18.990;2023-03-01T07:36:49;46.04;37.21;64.53;;
77134;Laerm;25175;50.140;18.990;2023-03-01T07:39:57;49.49;37.46;68.38;;
77134;Laerm;25175;50.140;18.990;2023-03-01T07:43:01;45.24;36.67;65.75;;
77134;Laerm;25175;50.140;18.990;2023-03-01T07:46:07;44.62;35.94;63.96;;
77134;Laerm;25175;50.140;18.990;2023-03-01T07:49:11;47.46;36.41;65.57;;
77134;Laerm;25175;50.140;18.990;2023-03-01T07:52:17;47.36;36.62;65.56;;
77134;Laerm;25175;50.140;18.990;2023-03-01T07:55:24;49.23;36.94;67.72;;
77134;Laerm;25175;50.140;18.990;2023-03-01T07:58:29;44.27;36.27;65.20;;
77134;Laerm;25175;50.140;18.990;2023-03-01T08:01:35;48.38;36.20;66.06;;
77134;Laerm;25175;50.140;18.990;2023-03-01T08:04:40;48.97;35.01;67.09;;
77134;Laerm;25175;50.140;18.990;2023-03-01T08:07:45;45.48;34.92;64.63;;
77134;Laerm;25175;50.140;18.990;2023-03-01T08:10:52;45.26;34.84;60.19;;
77134;Laerm;25175;50.140;18.990;2023-03-01T08:14:00;45.91;34.48;62.24;;
77134;Laerm;25175;50.140;18.990;2023-03-01T08:17:05;43.78;33.99;63.53;;
77134;Laerm;25175;50.140;18.990;2023-03-01T08:20:12;42.27;34.03;63.28;;
77134;Laerm;25175;50.140;18.990;2023-03-01T08:23:18;46.66;34.06;62.64;;
77134;Laerm;25175;50.140;18.990;2023-03-01T08:26:25;42.15;33.89;60.37;;
77134;Laerm;25175;50.140;18.990;2023-03-01T08:29:31;46.74;33.60;63.03;;
77134;Laerm;25175;50.140;18.990;2023-03-01T08:32:38;52.30;34.46;70.72;;
77134;Laerm;25175;50.140;18.990;2023-03-01T08:35:44;48.95;34.55;68.11;;
77134;Laerm;25175;50.140;18.990;2023-03-01T08:38:48;50.08;34.49;63.51;;
77134;Laerm;25175;50.140;18.990;2023-03-01T08:41:57;47.18;34.38;64.77;;
77134;Laerm;25175;50.140;18.990;2023-03-01T08:45:02;46.71;34.36;64.32;;
77134;Laerm;25175;50.140;18.990;2023-03-01T08:48:07;47.00;34.79;64.39;;
77134;Laerm;25175;50.140;18.990;2023-03-01T08:51:14;47.87;33.62;73.63;;
77134;Laerm;25175;50.140;18.990;2023-03-01T08:54:21;43.87;34.15;60.15;;
77134;Laerm;25175;50.140;18.990;2023-03-01T08:57:29;50.48;33.97;71.51;;
77134;Laerm;25175;50.140;18.990;2023-03-01T09:00:34;50.83;34.13;71.72;;
77134;Laerm;25175;50.140;18.990;2023-03-01T09:03:39;50.64;34.43;68.67;;
77134;Laerm;25175;50.140;18.990;2023-03-01T09:06:44;46.70;33.61;60.15;;
77134;Laerm;25175;50.140;18.990;2023-03-01T09:09:49;43.88;33.92;56.63;;
77134;Laerm;25175;50.140;18.990;2023-03-01T09:12:58;42.34;33.90;55.39;;
77134;Laerm;25175;50.140;18.990;2023-03-01T09:16:07;43.44;34.12;55.99;;
77134;Laerm;25175;50.140;18.990;2023-03-01T09:19:13;45.23;33.70;63.22;;
77134;Laerm;25175;50.140;18.990;2023-03-01T09:22:17;43.35;33.85;60.81;;
77134;Laerm;25175;50.140;18.990;2023-03-01T09:25:23;43.46;33.64;57.46;;
77134;Laerm;25175;50.140;18.990;2023-03-01T09:28:30;44.94;33.55;56.70;;
77134;Laerm;25175;50.140;18.990;2023-03-01T09:31:35;43.09;33.52;54.44;;
77134;Laerm;25175;50.140;18.990;2023-03-01T09:34:40;44.84;33.72;62.26;;
77134;Laerm;25175;50.140;18.990;2023-03-01T09:37:57;45.04;34.01;57.62;;
77134;Laerm;25175;50.140;18.990;2023-03-01T09:41:02;45.10;34.77;55.61;;
77134;Laerm;25175;50.140;18.990;2023-03-01T09:44:29;47.02;34.46;67.30;;
77134;Laerm;25175;50.140;18.990;2023-03-01T09:47:36;44.44;34.42;60.19;;
77134;Laerm;25175;50.140;18.990;2023-03-01T09:50:45;44.78;34.57;58.03;;
77134;Laerm;25175;50.140;18.990;2023-03-01T09:53:50;44.00;34.81;56.30;;
77134;Laerm;25175;50.140;18.990;2023-03-01T09:57:18;44.11;34.36;57.37;;
77134;Laerm;25175;50.140;18.990;2023-03-01T10:00:37;44.21;34.09;55.93;;
77134;Laerm;25175;50.140;18.990;2023-03-01T10:07:42;45.53;33.89;59.88;;
77134;Laerm;25175;50.140;18.990;2023-03-01T10:10:53;48.11;33.91;69.80;;
77134;Laerm;25175;50.140;18.990;2023-03-01T10:14:06;40.63;33.60;55.68;;
77134;Laerm;25175;50.140;18.990;2023-03-01T10:17:32;43.52;33.97;54.87;;
77134;Laerm;25175;50.140;18.990;2023-03-01T10:20:48;46.40;34.16;65.03;;
77134;Laerm;25175;50.140;18.990;2023-03-01T10:24:11;44.59;34.38;57.10;;
77134;Laerm;25175;50.140;18.990;2023-03-01T10:27:24;43.25;34.16;58.09;;
77134;Laerm;25175;50.140;18.990;2023-03-01T10:30:37;44.97;34.30;61.56;;
77134;Laerm;25175;50.140;18.990;2023-03-01T10:33:47;47.39;34.85;66.51;;
77134;Laerm;25175;50.140;18.990;2023-03-01T10:37:04;49.92;34.03;65.06;;
77134;Laerm;25175;50.140;18.990;2023-03-01T10:40:13;47.71;33.93;64.80;;
77134;Laerm;25175;50.140;18.990;2023-03-01T10:43:22;43.31;33.73;58.21;;
77134;Laerm;25175;50.140;18.990;2023-03-01T10:46:31;45.25;34.31;58.63;;
77134;Laerm;25175;50.140;18.990;2023-03-01T10:49:39;44.39;34.49;58.36;;
77134;Laerm;25175;50.140;18.990;2023-03-01T10:52:59;45.63;34.51;57.55;;
77134;Laerm;25175;50.140;18.990;2023-03-01T10:56:10;43.43;34.59;58.65;;
77134;Laerm;25175;50.140;18.990;2023-03-01T10:59:28;45.27;34.66;65.69;;
77134;Laerm;25175;50.140;18.990;2023-03-01T11:02:34;41.77;34.77;69.94;;
77134;Laerm;25175;50.140;18.990;2023-03-01T11:05:56;44.27;34.25;61.89;;
77134;Laerm;25175;50.140;18.990;2023-03-01T11:09:15;42.85;33.40;57.38;;
77134;Laerm;25175;50.140;18.990;2023-03-01T11:12:21;49.20;34.72;68.18;;
77134;Laerm;25175;50.140;18.990;2023-03-01T11:15:28;51.58;34.17;70.47;;
77134;Laerm;25175;50.140;18.990;2023-03-01T11:18:33;51.39;34.20;70.24;;
77134;Laerm;25175;50.140;18.990;2023-03-01T11:21:54;52.42;34.33;71.23;;
77134;Laerm;25175;50.140;18.990;2023-03-01T11:25:02;46.95;34.33;65.73;;
77134;Laerm;25175;50.140;18.990;2023-03-01T11:28:17;44.24;33.75;59.04;;
77134;Laerm;25175;50.140;18.990;2023-03-01T11:31:26;47.25;33.45;60.44;;
77134;Laerm;25175;50.140;18.990;2023-03-01T11:34:43;44.20;34.03;61.32;;
77134;Laerm;25175;50.140;18.990;2023-03-01T11:38:09;47.03;34.23;58.88;;
77134;Laerm;25175;50.140;18.990;2023-03-01T11:41:23;47.18;34.57;67.14;;
77134;Laerm;25175;50.140;18.990;2023-03-01T11:44:36;44.09;34.88;56.98;;
77134;Laerm;25175;50.140;18.990;2023-03-01T11:48:13;47.07;34.48;59.30;;
77134;Laerm;25175;50.140;18.990;2023-03-01T11:51:48;46.66;34.41;69.11;;
77134;Laerm;25175;50.140;18.990;2023-03-01T11:55:28;46.24;34.56;61.94;;
77134;Laerm;25175;50.140;18.990;2023-03-01T11:59:16;43.83;34.25;63.90;;
77134;Laerm;25175;50.140;18.990;2023-03-01T12:06:49;44.34;33.40;66.39;;
77134;Laerm;25175;50.140;18.990;2023-03-01T12:10:23;45.29;33.55;62.10;;
77134;Laerm;25175;50.140;18.990;2023-03-01T12:17:55;43.73;33.15;57.92;;
77134;Laerm;25175;50.140;18.990;2023-03-01T12:21:19;42.00;33.26;55.98;;
77134;Laerm;25175;50.140;18.990;2023-03-01T12:25:04;44.55;33.82;57.86;;
77134;Laerm;25175;50.140;18.990;2023-03-01T12:28:51;43.25;33.86;57.68;;
77134;Laerm;25175;50.140;18.990;2023-03-01T12:32:22;48.72;33.97;64.50;;
77134;Laerm;25175;50.140;18.990;2023-03-01T12:35:54;44.35;33.70;55.07;;
77134;Laerm;25175;50.140;18.990;2023-03-01T12:39:32;44.50;33.77;58.53;;
77134;Laerm;25175;50.140;18.990;2023-03-01T12:42:58;41.44;33.25;55.36;;
77134;Laerm;25175;50.140;18.990;2023-03-01T12:46:37;48.71;34.32;67.29;;
77134;Laerm;25175;50.140;18.990;2023-03-01T12:49:54;52.30;35.62;67.65;;
77134;Laerm;25175;50.140;18.990;2023-03-01T12:53:00;50.94;34.30;70.23;;
77134;Laerm;25175;50.140;18.990;2023-03-01T12:56:09;42.94;33.46;55.49;;
77134;Laerm;25175;50.140;18.990;2023-03-01T12:59:29;44.62;33.76;54.70;;
77134;Laerm;25175;50.140;18.990;2023-03-01T13:02:49;46.46;33.48;59.30;;
77134;Laerm;25175;50.140;18.990;2023-03-01T13:06:11;44.69;33.51;58.54;;
77134;Laerm;25175;50.140;18.990;2023-03-01T13:09:29;47.33;33.35;64.29;;
77134;Laerm;25175;50.140;18.990;2023-03-01T13:12:52;46.56;33.84;61.95;;
77134;Laerm;25175;50.140;18.990;2023-03-01T13:16:27;44.77;33.41;63.18;;
77134;Laerm;25175;50.140;18.990;2023-03-01T13:19:57;45.29;33.90;57.77;;
77134;Laerm;25175;50.140;18.990;2023-03-01T13:23:10;56.89;34.13;80.09;;
77134;Laerm;25175;50.140;18.990;2023-03-01T13:26:18;49.56;33.35;71.35;;
77134;Laerm;25175;50.140;18.990;2023-03-01T13:29:26;46.49;33.34;58.49;;
77134;Laerm;25175;50.140;18.990;2023-03-01T13:32:36;49.52;33.89;65.42;;
77134;Laerm;25175;50.140;18.990;2023-03-01T13:35:44;43.81;33.33;56.92;;
77134;Laerm;25175;50.140;18.990;2023-03-01T13:38:57;47.40;34.05;60.01;;
77134;Laerm;25175;50.140;18.990;2023-03-01T13:42:02;45.25;33.51;59.58;;
77134;Laerm;25175;50.140;18.990;2023-03-01T13:45:22;53.31;34.70;71.26;;
77134;Laerm;25175;50.140;18.990;2023-03-01T13:48:34;55.16;35.13;72.67;;
77134;Laerm;25175;50.140;18.990;2023-03-01T13:51:39;50.38;34.19;71.22;;
77134;Laerm;25175;50.140;18.990;2023-03-01T13:54:44;48.70;35.25;69.08;;
77134;Laerm;25175;50.140;18.990;2023-03-01T13:57:54;53.82;34.55;75.51;;
77134;Laerm;25175;50.140;18.990;2023-03-01T14:01:05;45.41;33.75;59.30;;
77134;Laerm;25175;50.140;18.990;2023-03-01T14:04:27;47.12;34.17;72.27;;
77134;Laerm;25175;50.140;18.990;2023-03-01T14:07:32;48.25;34.99;58.88;;
77134;Laerm;25175;50.140;18.990;2023-03-01T14:14:44;48.00;34.20;63.75;;
77134;Laerm;25175;50.140;18.990;2023-03-01T14:18:00;46.02;34.14;57.13;;
77134;Laerm;25175;50.140;18.990;2023-03-01T14:21:15;43.24;33.54;55.91;;
77134;Laerm;25175;50.140;18.990;2023-03-01T14:24:23;45.65;34.47;60.81;;
77134;Laerm;25175;50.140;18.990;2023-03-01T14:27:35;46.33;34.16;58.37;;
77134;Laerm;25175;50.140;18.990;2023-03-01T14:30:46;46.07;34.11;60.04;;
77134;Laerm;25175;50.140;18.990;2023-03-01T14:33:55;46.98;35.23;58.30;;
77134;Laerm;25175;50.140;18.990;2023-03-01T14:37:21;44.46;34.08;57.47;;
77134;Laerm;25175;50.140;18.990;2023-03-01T14:40:30;51.28;34.52;72.17;;
77134;Laerm;25175;50.140;18.990;2023-03-01T14:43:41;46.48;34.78;63.80;;
77134;Laerm;25175;50.140;18.990;2023-03-01T14:46:55;49.03;34.29;70.67;;
77134;Laerm;25175;50.140;18.990;2023-03-01T14:50:06;48.41;35.11;63.11;;
77134;Laerm;25175;50.140;18.990;2023-03-01T14:53:20;47.51;35.47;61.62;;
77134;Laerm;25175;50.140;18.990;2023-03-01T14:56:45;45.33;35.08;56.59;;
77134;Laerm;25175;50.140;18.990;2023-03-01T14:59:53;45.90;34.10;58.97;;
77134;Laerm;25175;50.140;18.990;2023-03-01T15:03:08;46.94;35.03;57.27;;
77134;Laerm;25175;50.140;18.990;2023-03-01T15:06:20;47.56;34.71;66.06;;
77134;Laerm;25175;50.140;18.990;2023-03-01T15:09:36;47.82;34.60;61.93;;
77134;Laerm;25175;50.140;18.990;2023-03-01T15:12:41;45.48;34.59;58.14;;
77134;Laerm;25175;50.140;18.990;2023-03-01T15:15:50;43.92;34.17;55.27;;
77134;Laerm;25175;50.140;18.990;2023-03-01T15:18:59;46.39;34.02;59.84;;
77134;Laerm;25175;50.140;18.990;2023-03-01T15:22:16;44.55;34.04;56.93;;
77134;Laerm;25175;50.140;18.990;2023-03-01T15:25:27;47.89;34.41;60.16;;
77134;Laerm;25175;50.140;18.990;2023-03-01T15:28:39;46.06;34.51;59.07;;
77134;Laerm;25175;50.140;18.990;2023-03-01T15:31:57;49.29;34.79;67.17;;
77134;Laerm;25175;50.140;18.990;2023-03-01T15:35:40;46.27;35.09;57.04;;
77134;Laerm;25175;50.140;18.990;2023-03-01T15:38:54;48.03;33.86;62.93;;
77134;Laerm;25175;50.140;18.990;2023-03-01T15:42:06;46.86;34.36;63.02;;
77134;Laerm;25175;50.140;18.990;2023-03-01T15:45:23;44.75;34.57;57.31;;
77134;Laerm;25175;50.140;18.990;2023-03-01T15:48:29;46.15;33.95;60.15;;
77134;Laerm;25175;50.140;18.990;2023-03-01T15:51:36;46.71;33.76;59.19;;
77134;Laerm;25175;50.140;18.990;2023-03-01T15:54:42;47.52;33.96;68.36;;
77134;Laerm;25175;50.140;18.990;2023-03-01T15:57:59;44.18;33.78;55.61;;
77134;Laerm;25175;50.140;18.990;2023-03-01T16:01:12;44.64;34.60;56.49;;
77134;Laerm;25175;50.140;18.990;2023-03-01T16:04:19;45.48;34.57;61.83;;
77134;Laerm;25175;50.140;18.990;2023-03-01T16:07:27;44.73;34.88;61.59;;
77134;Laerm;25175;50.140;18.990;2023-03-01T16:10:33;50.26;35.44;70.49;;
77134;Laerm;25175;50.140;18.990;2023-03-01T16:13:42;46.02;35.65;61.98;;
77134;Laerm;25175;50.140;18.990;2023-03-01T16:16:48;47.47;35.89;72.64;;
77134;Laerm;25175;50.140;18.990;2023-03-01T16:19:53;46.99;36.17;59.95;;
77134;Laerm;25175;50.140;18.990;2023-03-01T16:22:59;46.01;36.18;67.50;;
77134;Laerm;25175;50.140;18.990;2023-03-01T16:26:04;47.83;36.73;59.32;;
77134;Laerm;25175;50.140;18.990;2023-03-01T16:29:12;47.15;37.40;58.72;;
77134;Laerm;25175;50.140;18.990;2023-03-01T16:32:18;45.16;36.24;54.87;;
77134;Laerm;25175;50.140;18.990;2023-03-01T16:35:22;45.99;36.96;56.44;;
77134;Laerm;25175;50.140;18.990;2023-03-01T16:38:31;46.98;37.48;58.39;;
77134;Laerm;25175;50.140;18.990;2023-03-01T16:41:35;45.10;37.54;54.74;;
77134;Laerm;25175;50.140;18.990;2023-03-01T16:44:43;43.71;37.85;56.44;;
77134;Laerm;25175;50.140;18.990;2023-03-01T16:47:48;45.58;37.97;56.70;;
77134;Laerm;25175;50.140;18.990;2023-03-01T16:51:00;44.59;38.25;55.50;;
77134;Laerm;25175;50.140;18.990;2023-03-01T16:54:05;46.72;36.81;58.27;;
77134;Laerm;25175;50.140;18.990;2023-03-01T16:57:10;45.07;36.98;56.94;;
77134;Laerm;25175;50.140;18.990;2023-03-01T17:00:19;46.52;37.59;58.55;;
77134;Laerm;25175;50.140;18.990;2023-03-01T17:03:26;49.39;36.87;66.41;;
77134;Laerm;25175;50.140;18.990;2023-03-01T17:06:31;45.81;38.02;56.57;;
77134;Laerm;25175;50.140;18.990;2023-03-01T17:09:38;45.57;36.69;58.97;;
77134;Laerm;25175;50.140;18.990;2023-03-01T17:12:43;44.45;37.43;55.43;;
77134;Laerm;25175;50.140;18.990;2023-03-01T17:15:51;45.60;36.97;56.36;;
77134;Laerm;25175;50.140;18.990;2023-03-01T17:18:55;46.47;36.74;67.14;;
77134;Laerm;25175;50.140;18.990;2023-03-01T17:22:01;43.08;36.36;54.06;;
77134;Laerm;25175;50.140;18.990;2023-03-01T17:25:09;45.07;37.06;55.63;;
77134;Laerm;25175;50.140;18.990;2023-03-01T17:28:14;45.80;37.62;58.31;;
77134;Laerm;25175;50.140;18.990;2023-03-01T17:31:23;48.54;37.32;70.27;;
77134;Laerm;25175;50.140;18.990;2023-03-01T17:34:30;44.76;36.49;57.20;;
77134;Laerm;25175;50.140;18.990;2023-03-01T17:37:35;46.57;37.19;63.83;;
77134;Laerm;25175;50.140;18.990;2023-03-01T17:40:42;42.81;36.64;55.51;;
77134;Laerm;25175;50.140;18.990;2023-03-01T17:43:47;45.30;37.98;56.24;;